Time;durP1;ratioP1;P1;durP2;ratioP2;P2;SDS_P1;SDS_P2;PMS_P1;PMS_P2;Temp;Humidity;BMP_temperature;BMP_pressure;BME280_temperature;BME280_humidity;BME280_pressure;Samples;Min_cycle;Max_cycle;Signal;HPM_P1;HPM_P2
2023/06/21 00:02:28;;;;;;;0.30;0.30;;;28.90;58.00;;;29.79;41.36;94852.69;5033131;28;20196;-45
2023/06/21 00:04:55;;;;;;;0.20;0.20;;;28.90;58.10;;;29.76;41.40;94864.13;5033075;28;20185;-42
2023/06/21 00:07:23;;;;;;;0.30;0.30;;;28.90;58.10;;;29.72;41.47;94869.34;5032312;28;20195;-43
2023/06/21 00:09:52;;;;;;;0.40;0.40;;;28.90;58.20;;;29.68;41.60;94869.19;5033275;28;20527;-46
2023/06/21 00:12:20;;;;;;;0.20;0.20;;;28.90;58.30;;;29.65;41.57;94863.63;5032738;28;20637;-44
2023/06/21 00:14:47;;;;;;;0.20;0.20;;;28.90;58.40;;;29.62;41.34;94877.78;5032664;28;20574;-46
2023/06/21 00:17:14;;;;;;;0.40;0.40;;;28.80;58.40;;;29.59;41.36;94873.81;5032816;28;20195;-44
2023/06/21 00:19:41;;;;;;;0.25;0.25;;;28.80;58.50;;;29.58;41.49;94879.50;5032806;28;20211;-46
2023/06/21 00:22:08;;;;;;;0.20;0.20;;;28.80;58.60;;;29.56;41.86;94877.13;5032357;28;20285;-46
2023/06/21 00:24:36;;;;;;;0.30;0.30;;;28.80;58.70;;;29.55;41.61;94876.34;5032865;28;20229;-46
2023/06/21 00:27:03;;;;;;;0.30;0.30;;;28.80;58.80;;;29.54;42.22;94866.63;5032496;28;20655;-46
2023/06/21 00:29:30;;;;;;;0.22;0.22;;;28.80;58.80;;;29.53;42.29;94872.34;5031409;28;20293;-43
2023/06/21 00:31:58;;;;;;;0.30;0.30;;;28.80;59.00;;;29.53;41.65;94869.66;5031532;28;20547;-45
2023/06/21 00:34:25;;;;;;;0.28;0.28;;;28.70;58.90;;;29.52;42.05;94866.13;5048084;28;20289;-44
2023/06/21 00:36:52;;;;;;;0.30;0.30;;;28.70;58.90;;;29.51;42.25;94858.34;5032643;28;20259;-44
2023/06/21 00:39:20;;;;;;;0.30;0.30;;;28.70;59.00;;;29.51;41.86;94863.75;5048130;28;20652;-44
2023/06/21 00:41:47;;;;;;;0.20;0.20;;;28.70;59.10;;;29.50;42.38;94868.38;5031287;28;20647;-44
2023/06/21 00:44:15;;;;;;;0.20;0.20;;;28.70;59.10;;;29.50;42.13;94870.28;5031712;28;20195;-47
2023/06/21 00:46:42;;;;;;;0.20;0.20;;;28.60;59.00;;;29.49;41.98;94882.19;5032310;28;20196;-47
2023/06/21 00:49:10;;;;;;;0.20;0.20;;;28.60;59.10;;;29.48;42.41;94876.00;5032570;28;20206;-49
2023/06/21 00:51:38;;;;;;;0.30;0.30;;;28.60;59.10;;;29.47;42.35;94860.09;5031979;28;20266;-44
2023/06/21 00:54:06;;;;;;;0.20;0.20;;;28.60;59.20;;;29.46;42.34;94869.31;5047759;28;20654;-42
2023/06/21 00:56:36;;;;;;;0.20;0.20;;;28.60;59.20;;;29.44;42.06;94858.00;5031207;28;20294;-42
2023/06/21 00:59:04;;;;;;;0.20;0.20;;;28.60;59.10;;;29.44;42.18;94872.31;5031107;28;20218;-44
2023/06/21 01:01:31;;;;;;;0.20;0.20;;;28.60;59.20;;;29.42;42.08;94874.53;5032134;28;20185;-43
2023/06/21 01:04:00;;;;;;;0.20;0.20;;;28.60;59.20;;;29.42;42.56;94873.72;5032590;28;20210;-44
2023/06/21 01:06:31;;;;;;;0.20;0.20;;;28.60;59.20;;;29.38;42.14;94877.06;5031157;28;20195;-43
2023/06/21 01:10:02;;;;;;;0.30;0.30;;;28.60;59.40;;;29.33;42.24;94882.63;5031346;28;20572;-43
2023/06/21 01:13:06;;;;;;;0.20;0.20;;;28.60;59.30;;;29.30;42.36;94880.53;5026981;28;20540;-42
2023/06/21 01:15:46;;;;;;;0.20;0.20;;;28.60;59.40;;;29.28;42.59;94879.22;5032228;28;20199;-44
2023/06/21 01:18:15;;;;;;;0.30;0.30;;;28.50;59.40;;;29.29;42.21;94888.94;5047711;28;20192;-42
2023/06/21 01:20:48;;;;;;;0.20;0.20;;;28.50;59.40;;;29.26;42.17;94893.06;5034253;28;20298;-43
2023/06/21 01:23:57;;;;;;;0.30;0.30;;;28.50;59.40;;;29.23;42.61;94899.88;5034637;28;20249;-46
2023/06/21 01:26:58;;;;;;;0.30;0.30;;;28.50;59.70;;;29.17;42.57;94893.00;5035838;28;20209;-43
2023/06/21 01:29:31;;;;;;;0.30;0.30;;;28.40;59.60;;;29.17;42.66;94884.91;5036084;28;20176;-46
2023/06/21 01:32:02;;;;;;;0.30;0.30;;;28.40;59.70;;;29.17;42.99;94867.91;5034274;28;20221;-47
2023/06/21 01:34:32;;;;;;;0.30;0.30;;;28.40;59.70;;;29.16;42.59;94867.13;5034894;28;20269;-44
2023/06/21 01:36:59;;;;;;;0.20;0.20;;;28.40;59.80;;;29.15;42.53;94862.81;5050790;28;20207;-44
2023/06/21 01:39:28;;;;;;;0.28;0.28;;;28.40;59.80;;;29.15;43.02;94856.59;5035186;28;20229;-43
2023/06/21 01:41:58;;;;;;;0.30;0.30;;;28.40;60.00;;;29.15;43.23;94857.41;5034914;28;20526;-44
2023/06/21 01:44:27;;;;;;;0.30;0.30;;;28.40;60.00;;;29.14;42.60;94857.72;5050762;28;20641;-43
2023/06/21 01:46:55;;;;;;;0.30;0.30;;;28.30;60.00;;;29.14;42.73;94852.31;5050648;28;20262;-43
2023/06/21 01:49:24;;;;;;;0.30;0.30;;;28.40;60.10;;;29.12;42.84;94849.94;5050554;28;20289;-43
2023/06/21 01:51:53;;;;;;;0.20;0.20;;;28.30;60.10;;;29.12;43.24;94851.84;5017736;28;20203;-42
2023/06/21 01:54:24;;;;;;;0.30;0.30;;;28.30;60.00;;;29.13;43.33;94869.66;5034033;28;20659;-42
2023/06/21 01:56:58;;;;;;;0.30;0.30;;;28.30;60.10;;;29.12;43.32;94871.53;5035213;28;20189;-43
2023/06/21 01:59:25;;;;;;;0.20;0.20;;;28.30;60.10;;;29.12;42.75;94876.16;5034387;28;20214;-44
2023/06/21 02:01:53;;;;;;;0.20;0.20;;;28.30;60.20;;;29.12;43.00;94884.25;5050182;28;20281;-44
2023/06/21 02:04:23;;;;;;;0.30;0.30;;;28.30;60.20;;;29.12;43.53;94892.34;5050398;28;20266;-42
2023/06/21 02:06:52;;;;;;;0.30;0.30;;;28.30;60.30;;;29.10;42.95;94899.97;5017412;28;20300;-47
2023/06/21 02:09:20;;;;;;;0.30;0.30;;;28.30;60.20;;;29.09;42.98;94888.38;5050433;28;20202;-48
2023/06/21 02:11:48;;;;;;;0.20;0.20;;;28.30;60.30;;;29.08;43.45;94882.16;5050022;28;20194;-46
2023/06/21 02:14:15;;;;;;;0.28;0.28;;;28.30;60.30;;;29.07;43.36;94875.16;5033518;28;20220;-46
2023/06/21 02:16:42;;;;;;;0.20;0.20;;;28.30;60.30;;;29.06;43.59;94888.97;5017318;28;20204;-47
2023/06/21 02:19:10;;;;;;;0.20;0.20;;;28.30;60.40;;;29.03;43.14;94893.09;5033499;28;20225;-44
2023/06/21 02:21:38;;;;;;;0.20;0.20;;;28.30;60.50;;;29.04;43.04;94899.28;5034314;28;20194;-46
2023/06/21 02:24:06;;;;;;;0.20;0.20;;;28.20;60.50;;;29.03;43.25;94901.19;5048785;28;20313;-43
2023/06/21 02:26:33;;;;;;;0.20;0.20;;;28.20;60.40;;;29.01;43.26;94881.81;5033528;28;20267;-48
2023/06/21 02:29:01;;;;;;;0.20;0.20;;;28.20;60.50;;;29.00;43.60;94872.13;5033477;28;20259;-44
2023/06/21 02:31:28;;;;;;;0.20;0.20;;;28.20;60.50;;;29.00;43.49;94864.03;5032745;28;20632;-47
2023/06/21 02:33:55;;;;;;;0.20;0.20;;;28.20;60.60;;;28.99;43.37;94877.81;5032203;28;20211;-44
2023/06/21 02:36:22;;;;;;;0.30;0.30;;;28.20;60.70;;;28.99;43.80;94877.81;5033140;28;20190;-48
2023/06/21 02:38:49;;;;;;;0.20;0.20;;;28.20;60.70;;;28.97;43.88;94880.06;5033653;28;20255;-47
2023/06/21 02:41:18;;;;;;;0.30;0.30;;;28.20;60.70;;;28.96;43.70;94881.16;5031918;28;20233;-42
2023/06/21 02:43:45;;;;;;;0.28;0.28;;;28.20;60.70;;;28.96;43.69;94871.16;5048682;28;20255;-41
2023/06/21 02:46:12;;;;;;;0.30;0.30;;;28.20;60.70;;;28.96;43.23;94873.06;5033060;28;20624;-42
2023/06/21 02:48:39;;;;;;;0.30;0.30;;;28.20;60.80;;;28.94;43.62;94886.84;5032111;28;20241;-44
2023/06/21 02:51:06;;;;;;;0.20;0.20;;;28.20;60.80;;;28.92;43.86;94880.97;5031919;28;20210;-40
2023/06/21 02:53:33;;;;;;;0.30;0.30;;;28.20;60.80;;;28.91;43.53;94877.47;5032907;28;20261;-40
2023/06/21 02:56:00;;;;;;;0.30;0.30;;;28.20;60.80;;;28.91;43.83;94871.28;5032897;28;20197;-41
2023/06/21 02:58:27;;;;;;;0.20;0.20;;;28.10;60.90;;;28.89;44.14;94870.78;5032856;28;20213;-40
2023/06/21 03:00:57;;;;;;;0.30;0.30;;;28.10;60.80;;;28.88;44.05;94866.50;5033009;28;20210;-40
2023/06/21 03:03:24;;;;;;;0.20;0.20;;;28.10;60.90;;;28.87;43.62;94871.09;5032673;28;20187;-40
2023/06/21 03:05:52;;;;;;;0.20;0.20;;;28.10;60.90;;;28.87;43.63;94878.44;5032791;28;20630;-40
2023/06/21 03:08:19;;;;;;;0.20;0.20;;;28.10;60.90;;;28.85;43.80;94870.59;5032756;28;20276;-40
2023/06/21 03:10:46;;;;;;;0.30;0.30;;;28.10;61.00;;;28.85;44.33;94867.91;5032604;28;20292;-40
2023/06/21 03:13:13;;;;;;;0.20;0.20;;;28.10;61.00;;;28.84;43.76;94866.31;5048067;28;20217;-40
2023/06/21 03:15:40;;;;;;;0.30;0.30;;;28.10;61.00;;;28.83;44.27;94867.44;5048235;28;20193;-40
2023/06/21 03:18:07;;;;;;;0.30;0.30;;;28.10;61.00;;;28.82;44.32;94865.03;5032851;28;20197;-39
2023/06/21 03:20:34;;;;;;;0.30;0.30;;;28.10;61.00;;;28.81;44.21;94869.66;5047949;28;20291;-40
2023/06/21 03:23:02;;;;;;;0.30;0.30;;;28.10;61.50;;;28.82;43.98;94873.13;4990185;28;1520379;-40
2023/06/21 03:25:29;;;;;;;0.20;0.20;;;28.10;61.10;;;28.80;43.96;94869.97;5033187;28;20200;-40
2023/06/21 03:27:59;;;;;;;0.20;0.20;;;28.10;61.10;;;28.79;44.03;94876.47;5033987;28;20532;-41
2023/06/21 03:30:28;;;;;;;0.28;0.28;;;28.10;61.10;;;28.77;44.29;94875.97;5032479;28;20579;-39
2023/06/21 03:32:57;;;;;;;0.20;0.20;;;28.00;61.10;;;28.74;44.04;94869.28;5032380;28;20204;-40
2023/06/21 03:35:27;;;;;;;0.20;0.20;;;28.00;61.10;;;28.72;44.00;94871.50;5032420;28;20209;-40
2023/06/21 03:37:54;;;;;;;0.30;0.30;;;28.00;61.10;;;28.69;44.08;94864.81;5048988;28;20206;-40
2023/06/21 03:40:29;;;;;;;0.30;0.30;;;28.00;61.10;;;28.68;43.77;94865.09;5032140;28;20212;-40
2023/06/21 03:42:57;;;;;;;0.20;0.20;;;28.00;61.10;;;28.69;44.38;94867.50;5031358;28;20209;-42
2023/06/21 03:45:24;;;;;;;0.30;0.30;;;28.00;61.20;;;28.67;44.21;94850.00;5032233;28;20253;-40
2023/06/21 03:47:56;;;;;;;0.30;0.30;;;27.90;61.10;;;28.65;44.58;94844.09;5032223;28;20201;-40
2023/06/21 03:50:24;;;;;;;0.30;0.30;;;27.90;61.20;;;28.65;43.96;94838.72;5048762;28;20205;-43
2023/06/21 03:52:51;;;;;;;0.20;0.20;;;27.90;61.30;;;28.64;44.55;94846.03;5031965;28;20299;-39
2023/06/21 03:55:19;;;;;;;0.30;0.30;;;27.90;61.30;;;28.62;44.69;94850.94;5032075;28;20599;-45
2023/06/21 03:57:47;;;;;;;0.20;0.20;;;27.90;61.30;;;28.62;44.22;94860.94;5033220;28;20203;-42
2023/06/21 04:00:16;;;;;;;0.30;0.30;;;27.90;61.30;;;28.58;44.21;94863.44;5048558;28;20253;-40
2023/06/21 04:02:51;;;;;;;0.25;0.25;;;27.90;61.30;;;28.55;44.52;94861.34;5033053;28;20290;-39
2023/06/21 04:05:20;;;;;;;0.30;0.30;;;27.80;61.30;;;28.53;44.25;94866.28;5033352;28;20237;-41
2023/06/21 04:07:47;;;;;;;0.30;0.30;;;27.80;61.20;;;28.51;44.31;94863.88;5031860;28;20545;-41
2023/06/21 04:10:15;;;;;;;0.30;0.30;;;27.80;61.30;;;28.50;44.70;94864.19;5031893;28;20203;-45
2023/06/21 04:12:43;;;;;;;0.30;0.30;;;27.80;61.30;;;28.48;44.07;94869.09;5032638;28;20602;-41
2023/06/21 04:15:11;;;;;;;0.30;0.30;;;27.80;61.30;;;28.47;44.39;94886.41;5032727;28;20195;-42
2023/06/21 04:17:39;;;;;;;0.30;0.30;;;27.70;61.10;;;28.43;44.09;94881.59;5031726;28;20294;-45
2023/06/21 04:20:14;;;;;;;0.28;0.28;;;27.70;61.20;;;28.41;44.08;94883.78;5032854;28;20214;-42
2023/06/21 04:22:44;;;;;;;0.30;0.30;;;27.70;61.10;;;28.39;44.78;94877.13;5032463;28;20239;-43
2023/06/21 04:25:12;;;;;;;0.30;0.30;;;27.70;61.10;;;28.37;44.66;94877.44;5031664;28;20221;-43
2023/06/21 04:27:45;;;;;;;0.30;0.30;;;27.70;61.10;;;28.36;44.19;94891.25;5032802;28;20228;-43
2023/06/21 04:30:14;;;;;;;0.40;0.40;;;27.70;62.10;;;28.35;44.81;94903.91;5031615;28;20217;-42
2023/06/21 04:32:45;;;;;;;0.30;0.30;;;27.70;61.10;;;28.33;44.27;94903.44;5031652;28;20210;-41
2023/06/21 04:35:17;;;;;;;0.30;0.30;;;27.70;61.20;;;28.34;44.42;94906.91;5032981;28;20190;-40
2023/06/21 04:37:46;;;;;;;0.30;0.30;;;27.70;61.30;;;28.33;44.42;94900.75;5032722;28;20507;-44
2023/06/21 04:40:19;;;;;;;0.30;0.30;;;27.70;61.30;;;28.31;44.96;94902.94;5032388;28;20212;-42
2023/06/21 04:42:54;;;;;;;0.30;0.30;;;27.70;61.30;;;28.31;44.36;94913.72;5032312;28;20182;-42
2023/06/21 04:45:24;;;;;;;0.20;0.20;;;27.70;61.30;;;28.32;44.74;94917.22;5031469;28;20202;-41
2023/06/21 04:47:53;;;;;;;0.30;0.30;;;27.70;61.30;;;28.31;44.48;94919.13;5032230;28;20205;-40
2023/06/21 04:50:22;;;;;;;0.20;0.20;;;27.70;61.30;;;28.33;44.60;94919.63;5031406;28;20249;-40
2023/06/21 04:52:51;;;;;;;0.20;0.20;;;27.70;61.40;;;28.34;45.08;94920.41;5031993;28;20635;-39
2023/06/21 04:55:19;;;;;;;0.20;0.20;;;27.70;61.40;;;28.36;44.72;94918.22;5032298;28;20203;-41
2023/06/21 04:57:48;;;;;;;0.30;0.30;;;27.70;61.40;;;28.35;45.07;94912.00;5032539;28;20262;-40
2023/06/21 05:00:17;;;;;;;0.30;0.30;;;27.70;61.40;;;28.36;44.96;94910.91;5047774;28;20251;-40
2023/06/21 05:02:46;;;;;;;0.30;0.30;;;27.70;61.40;;;28.37;44.83;94920.59;5031949;28;20234;-40
2023/06/21 05:05:13;;;;;;;0.30;0.30;;;27.70;61.40;;;28.39;44.71;94917.59;5047791;28;20622;-39
2023/06/21 05:07:40;;;;;;;0.30;0.30;;;27.70;61.30;;;28.38;44.71;94922.19;5032526;28;20275;-40
2023/06/21 05:10:09;;;;;;;0.30;0.30;;;27.70;61.30;;;28.41;44.36;94921.56;5032200;28;20217;-39
2023/06/21 05:12:37;;;;;;;0.30;0.30;;;27.70;61.30;;;28.41;44.83;94920.78;5032058;28;20193;-38
2023/06/21 05:15:05;;;;;;;0.22;0.22;;;27.70;61.30;;;28.41;45.00;94921.56;5031083;28;20628;-38
2023/06/21 05:17:34;;;;;;;0.30;0.30;;;27.70;61.40;;;28.43;44.97;94918.59;5047417;28;20199;-41
2023/06/21 05:20:04;;;;;;;0.30;0.30;;;27.70;61.40;;;28.42;44.56;94912.38;5031716;28;20229;-40
2023/06/21 05:22:31;;;;;;;0.30;0.30;;;27.70;61.40;;;28.43;44.49;94913.97;5031526;28;20236;-37
2023/06/21 05:25:01;;;;;;;0.20;0.20;;;27.80;61.50;;;28.44;44.63;94923.66;5031695;28;20705;-38
2023/06/21 05:27:30;;;;;;;0.28;0.28;;;27.80;61.50;;;28.46;44.90;94919.88;5031807;28;20205;-39
2023/06/21 05:29:57;;;;;;;0.30;0.30;;;27.80;61.50;;;28.47;44.88;94916.06;5031986;28;20588;-39
2023/06/21 05:32:27;;;;;;;0.30;0.30;;;27.80;61.50;;;28.46;44.67;94928.75;5047128;28;20286;-38
2023/06/21 05:34:54;;;;;;;0.30;0.30;;;27.80;61.60;;;28.48;44.87;94923.84;5046862;28;20186;-39
2023/06/21 05:37:22;;;;;;;0.20;0.20;;;27.80;61.50;;;28.49;44.55;94925.47;5032182;28;20197;-39
2023/06/21 05:39:50;;;;;;;0.20;0.20;;;27.80;61.50;;;28.49;44.57;94928.16;5031871;28;20617;-39
2023/06/21 05:42:18;;;;;;;0.30;0.30;;;27.80;61.50;;;28.50;44.92;94935.13;5031873;28;20557;-42
2023/06/21 05:44:45;;;;;;;0.20;0.20;;;27.80;61.50;;;28.50;44.73;94934.34;5031835;28;20280;-38
2023/06/21 05:47:13;;;;;;;0.30;0.30;;;27.80;61.60;;;28.51;45.18;94935.94;5031734;28;20247;-44
2023/06/21 05:49:40;;;;;;;0.20;0.20;;;27.80;61.60;;;28.51;44.90;94941.34;5031754;28;20262;-42
2023/06/21 05:52:07;;;;;;;0.20;0.20;;;27.80;61.60;;;28.51;45.19;94947.50;5031542;28;20205;-41
2023/06/21 05:54:37;;;;;;;0.20;0.20;;;27.80;61.60;;;28.50;45.28;94947.81;5031663;28;20291;-49
2023/06/21 05:57:05;;;;;;;0.30;0.30;;;27.80;61.60;;;28.51;44.87;94961.00;5031407;28;20198;-43
2023/06/21 05:59:32;;;;;;;0.25;0.25;;;27.80;61.60;;;28.52;44.82;94956.41;5031408;28;20277;-43
2023/06/21 06:01:59;;;;;;;0.28;0.28;;;27.90;61.70;;;28.52;45.41;94957.22;5031432;28;20224;-41
2023/06/21 06:04:27;;;;;;;0.20;0.20;;;27.90;61.70;;;28.53;44.68;94958.03;5047443;28;20695;-43
2023/06/21 06:06:54;;;;;;;0.25;0.25;;;27.90;61.70;;;28.54;44.82;94954.19;5033967;28;20194;-40
2023/06/21 06:09:23;;;;;;;0.25;0.25;;;27.90;61.70;;;28.55;45.10;94953.91;5034971;28;20259;-39
2023/06/21 06:11:50;;;;;;;0.30;0.30;;;27.90;61.70;;;28.56;45.31;94965.50;5033670;28;20194;-39
2023/06/21 06:14:18;;;;;;;0.25;0.25;;;27.90;62.60;;;28.56;44.91;94960.09;5034585;28;20290;-42
2023/06/21 06:16:45;;;;;;;0.20;0.20;;;27.90;61.70;;;28.58;45.09;94979.47;5034586;28;20195;-42
2023/06/21 06:19:12;;;;;;;0.30;0.30;;;28.00;61.70;;;28.59;45.39;94979.16;5034788;28;20193;-39
2023/06/21 06:21:41;;;;;;;0.30;0.30;;;28.00;61.70;;;28.59;44.96;94979.16;5035041;28;20608;-39
2023/06/21 06:24:08;;;;;;;0.20;0.20;;;27.90;61.60;;;28.60;44.96;94978.06;5034383;28;20233;-46
2023/06/21 06:26:36;;;;;;;0.20;0.20;;;28.00;61.70;;;28.63;45.31;94983.97;5034723;28;20197;-45
2023/06/21 06:29:03;;;;;;;0.30;0.30;;;28.00;61.70;;;28.63;45.46;94983.97;5034663;28;20194;-44
2023/06/21 06:31:30;;;;;;;0.20;0.20;;;28.00;61.70;;;28.64;45.46;94991.75;5050388;28;20204;-43
2023/06/21 06:33:58;;;;;;;0.30;0.30;;;28.00;61.70;;;28.64;44.84;94986.34;5034162;28;20199;-47
2023/06/21 06:36:25;;;;;;;0.30;0.30;;;28.00;62.70;;;28.65;45.44;94990.66;5034271;28;20220;-43
2023/06/21 06:38:52;;;;;;;0.30;0.30;;;28.10;61.70;;;28.67;44.96;94998.44;5034271;28;20195;-45
2023/06/21 06:41:20;;;;;;;0.20;0.20;;;28.10;61.80;;;28.68;45.37;95003.56;5049743;28;20214;-41
2023/06/21 06:43:47;;;;;;;0.30;0.30;;;28.10;61.80;;;28.69;45.53;94996.28;5034072;28;20195;-41
2023/06/21 06:46:14;;;;;;;0.20;0.20;;;28.10;61.90;;;28.71;45.09;95008.34;5034121;28;20219;-42
2023/06/21 06:48:41;;;;;;;0.20;0.20;;;28.10;61.80;;;28.72;45.71;95006.44;5034372;28;20618;-42
2023/06/21 06:51:08;;;;;;;0.30;0.30;;;28.10;61.80;;;28.74;45.18;95007.72;5034025;28;20584;-41
2023/06/21 06:53:35;;;;;;;0.30;0.30;;;28.10;61.80;;;28.76;45.76;95007.44;5033935;28;20199;-42
2023/06/21 06:56:02;;;;;;;0.22;0.22;;;28.20;61.90;;;28.78;45.78;95018.72;5034271;28;20618;-42
2023/06/21 06:58:30;;;;;;;0.30;0.30;;;28.20;61.90;;;28.78;45.41;95029.50;5033950;28;20199;-42
2023/06/21 07:00:58;;;;;;;0.20;0.20;;;28.20;61.90;;;28.80;45.24;95023.84;5033804;28;20319;-42
2023/06/21 07:03:25;;;;;;;0.40;0.40;;;28.20;61.90;;;28.81;45.25;95031.63;5033707;28;20187;-42
2023/06/21 07:05:52;;;;;;;0.28;0.28;;;28.20;61.90;;;28.83;45.27;95021.31;5032900;28;20208;-42
2023/06/21 07:08:19;;;;;;;0.20;0.20;;;28.30;62.00;;;28.86;45.41;95030.72;5034006;28;20209;-42
2023/06/21 07:10:46;;;;;;;0.30;0.30;;;28.30;62.00;;;28.87;45.89;95029.59;5033744;28;20281;-42
2023/06/21 07:13:13;;;;;;;0.20;0.20;;;28.30;62.00;;;28.89;45.22;95022.78;5033817;28;20396;-42
2023/06/21 07:15:41;;;;;;;0.30;0.30;;;28.30;62.00;;;28.90;45.64;95023.56;5033937;28;20708;-42
2023/06/21 07:18:08;;;;;;;0.30;0.30;;;28.30;61.90;;;28.90;45.25;95024.38;5032334;28;20673;-41
2023/06/21 07:20:35;;;;;;;0.30;0.30;;;28.30;61.90;;;28.94;45.31;95029.16;5033786;28;20213;-42
2023/06/21 07:23:03;;;;;;;0.20;0.20;;;28.30;61.90;;;28.95;45.30;95033.47;5033507;28;20235;-43
2023/06/21 07:25:30;;;;;;;0.20;0.20;;;28.40;61.90;;;28.98;45.67;95035.53;5033779;28;20191;-42
2023/06/21 07:27:58;;;;;;;0.20;0.20;;;28.40;61.90;;;28.99;45.14;95031.75;5033485;28;20195;-43
2023/06/21 07:30:25;;;;;;;0.30;0.30;;;28.40;61.90;;;29.00;45.20;95038.75;5033430;28;20223;-42
2023/06/21 07:32:53;;;;;;;0.20;0.20;;;28.40;61.80;;;29.01;45.68;95035.72;5033422;28;20189;-42
2023/06/21 07:35:20;;;;;;;0.30;0.30;;;28.50;61.90;;;29.04;45.54;95045.13;5048939;28;20188;-42
2023/06/21 07:37:47;;;;;;;0.20;0.20;;;28.50;61.90;;;29.06;45.63;95043.72;5033376;28;20566;-42
2023/06/21 07:40:14;;;;;;;0.30;0.30;;;28.50;61.90;;;29.08;45.55;95036.09;5033310;28;20380;-42
2023/06/21 07:42:42;;;;;;;0.22;0.22;;;28.50;61.80;;;29.11;45.24;95039.28;5033052;28;20247;-43
2023/06/21 07:45:09;;;;;;;0.30;0.30;;;28.50;61.80;;;29.13;45.51;95037.09;5033506;28;20285;-43
2023/06/21 07:47:37;;;;;;;0.22;0.22;;;28.50;61.80;;;29.14;45.21;95039.47;5048888;28;20294;-42
2023/06/21 07:50:05;;;;;;;0.30;0.30;;;28.50;61.80;;;29.17;45.70;95044.25;5033145;28;20199;-41
2023/06/21 07:52:48;;;;;;;0.30;0.30;;;28.60;61.80;;;29.19;45.31;95049.38;5033444;28;20188;-43
2023/06/21 07:55:15;;;;;;;0.25;0.25;;;28.60;61.80;;;29.21;45.21;95047.13;5033359;28;20198;-43
2023/06/21 07:57:43;;;;;;;0.20;0.20;;;28.60;61.80;;;29.22;45.51;95043.34;5033303;28;20249;-42
2023/06/21 08:00:11;;;;;;;0.30;0.30;;;28.60;61.70;;;29.25;45.12;95050.84;5032047;28;20214;-43
2023/06/21 08:02:49;;;;;;;0.30;0.30;;;28.70;61.80;;;29.27;45.51;95050.53;5033285;28;20537;-42
2023/06/21 08:05:18;;;;;;;0.28;0.28;;;28.70;61.80;;;29.30;45.08;95060.75;5047990;28;20195;-43
2023/06/21 08:07:45;;;;;;;0.20;0.20;;;28.70;61.70;;;29.30;45.33;95061.53;5032908;28;20188;-43
2023/06/21 08:10:12;;;;;;;0.20;0.20;;;28.70;61.60;;;29.32;45.40;95064.75;5032821;28;20188;-42
2023/06/21 08:12:40;;;;;;;0.30;0.30;;;28.70;61.60;;;29.33;44.88;95055.53;5032774;28;20233;-38
2023/06/21 08:15:08;;;;;;;0.30;0.30;;;28.80;61.60;;;29.35;45.29;95069.50;5032775;28;20204;-44
2023/06/21 08:17:35;;;;;;;0.30;0.30;;;28.70;61.60;;;29.37;44.85;95059.22;5033192;28;20203;-45
2023/06/21 08:20:03;;;;;;;0.30;0.30;;;28.80;61.50;;;29.40;45.27;95060.50;5032963;28;20211;-43
2023/06/21 08:22:30;;;;;;;0.25;0.25;;;28.80;61.50;;;29.42;45.18;95069.09;5032455;28;20236;-41
2023/06/21 08:24:58;;;;;;;0.20;0.20;;;28.80;61.40;;;29.44;45.10;95066.06;5032664;28;20198;-42
2023/06/21 08:27:25;;;;;;;0.30;0.30;;;28.80;61.50;;;29.46;44.94;95063.88;5032194;28;20247;-41
2023/06/21 08:29:52;;;;;;;0.30;0.30;;;28.80;61.40;;;29.47;44.87;95063.56;5047870;28;20203;-44
2023/06/21 08:32:19;;;;;;;0.30;0.30;;;28.90;61.40;;;29.50;44.59;95070.25;5032554;28;20192;-44
2023/06/21 08:34:47;;;;;;;0.30;0.30;;;28.90;61.40;;;29.51;45.00;95067.22;5032418;28;20207;-46
2023/06/21 08:37:14;;;;;;;0.22;0.22;;;28.90;61.40;;;29.54;44.47;95080.13;5032713;28;20256;-39
2023/06/21 08:39:41;;;;;;;0.40;0.40;;;28.90;61.30;;;29.55;44.91;95068.22;5032431;28;20292;-42
2023/06/21 08:42:09;;;;;;;0.30;0.30;;;28.90;61.30;;;29.58;44.76;95077.59;5032473;28;20226;-41
2023/06/21 08:44:36;;;;;;;0.30;0.30;;;29.00;61.30;;;29.61;44.78;95076.97;5032485;28;20200;-41
2023/06/21 08:47:06;;;;;;;0.40;0.40;;;29.00;61.30;;;29.63;45.01;95077.47;5031551;28;20192;-39
2023/06/21 08:49:40;;;;;;;0.30;0.30;;;29.00;61.30;;;29.65;45.08;95083.38;5032366;28;20176;-38
2023/06/21 08:52:16;;;;;;;0.30;0.30;;;29.00;61.30;;;29.67;44.92;95086.56;5031923;28;20199;-38
2023/06/21 08:54:50;;;;;;;0.30;0.30;;;29.00;61.30;;;29.68;44.38;95079.25;5031342;28;20208;-53
2023/06/21 08:57:25;;;;;;;0.20;0.20;;;29.10;61.20;;;29.70;44.94;95088.66;5031712;28;20200;-42
2023/06/21 09:00:05;;;;;;;0.30;0.30;;;29.10;61.10;;;29.72;44.92;95077.50;5047692;28;20527;-42
2023/06/21 09:02:40;;;;;;;0.30;0.30;;;29.10;61.10;;;29.74;44.71;95077.22;5032306;28;20234;-39
2023/06/21 09:05:14;;;;;;;0.30;0.30;;;29.10;61.10;;;29.76;44.03;95081.22;5032699;28;20244;-42
2023/06/21 09:07:43;;;;;;;0.20;0.20;;;29.10;61.00;;;29.79;44.29;95079.78;5032207;28;20212;-43
2023/06/21 09:10:15;;;;;;;0.30;0.30;;;29.10;61.00;;;29.82;44.46;95073.75;5032284;28;20204;-39
2023/06/21 09:12:43;;;;;;;0.20;0.20;;;29.20;61.10;;;29.83;44.21;95078.88;5047101;28;20184;-39
2023/06/21 09:15:12;;;;;;;0.20;0.20;;;29.20;61.10;;;29.86;44.07;95078.22;5047680;28;20287;-38
2023/06/21 09:17:40;;;;;;;0.30;0.30;;;29.20;61.00;;;29.89;44.00;95076.81;5031909;28;20204;-38
2023/06/21 09:20:09;;;;;;;0.20;0.20;;;29.20;61.00;;;29.90;43.87;95083.84;5031881;28;20207;-38
2023/06/21 09:22:38;;;;;;;0.20;0.20;;;29.30;61.00;;;29.94;44.04;95082.09;5047250;28;20307;-38
2023/06/21 09:25:05;;;;;;;0.40;0.40;;;29.30;60.90;;;29.96;44.48;95071.78;5031745;28;20193;-38
2023/06/21 09:27:32;;;;;;;0.30;0.30;;;29.30;60.90;;;29.97;43.93;95073.38;5031802;28;20624;-39
2023/06/21 09:30:00;;;;;;;0.32;0.32;;;29.30;60.90;;;29.99;43.73;95065.75;5031761;28;20282;-39
2023/06/21 09:32:47;;;;;;;0.20;0.20;;;29.30;60.80;;;30.01;43.80;95076.25;5031935;28;20188;-39
2023/06/21 09:35:14;;;;;;;0.20;0.20;;;29.40;60.80;;;30.05;44.02;95068.31;5031580;28;20277;-38
2023/06/21 09:37:42;;;;;;;0.30;0.30;;;29.40;60.70;;;30.07;43.80;95071.50;5031938;28;20252;-39
2023/06/21 09:40:13;;;;;;;0.30;0.30;;;29.40;60.70;;;30.08;43.74;95068.50;5032208;28;20196;-40
2023/06/21 09:42:42;;;;;;;0.30;0.30;;;29.40;60.70;;;30.10;43.91;95065.47;5035285;28;20527;-39
2023/06/21 09:45:17;;;;;;;0.22;0.22;;;29.40;60.70;;;30.11;44.20;95072.47;5035175;28;20262;-41
2023/06/21 09:47:45;;;;;;;0.30;0.30;;;29.50;60.70;;;30.13;43.77;95064.84;5035377;28;20177;-43
2023/06/21 09:50:13;;;;;;;0.20;0.20;;;29.50;60.70;;;30.16;43.57;95064.22;5050886;28;20231;-40
2023/06/21 09:52:44;;;;;;;0.30;0.30;;;29.50;60.60;;;30.17;43.34;95068.50;5034939;28;20508;-40
2023/06/21 09:55:16;;;;;;;0.20;0.20;;;29.50;60.50;;;30.19;43.84;95064.38;5034835;28;20258;-38
2023/06/21 09:57:44;;;;;;;0.30;0.30;;;29.60;60.60;;;30.22;43.75;95062.16;5035250;28;20207;-43
2023/06/21 10:00:13;;;;;;;0.20;0.20;;;29.50;60.50;;;30.24;43.55;95055.31;5050544;28;20204;-39
2023/06/21 10:02:42;;;;;;;0.20;0.20;;;29.60;60.50;;;30.26;43.83;95063.13;5034978;28;20228;-41
2023/06/21 10:05:17;;;;;;;0.20;0.20;;;29.60;60.50;;;30.28;43.92;95060.91;5034632;28;20583;-42
2023/06/21 10:07:45;;;;;;;0.30;0.30;;;29.60;60.40;;;30.29;43.45;95057.88;5035309;28;20204;-40
2023/06/21 10:10:13;;;;;;;0.30;0.30;;;29.60;60.50;;;30.32;43.92;95064.56;5034793;28;20281;-39
2023/06/21 10:12:54;;;;;;;0.20;0.20;;;29.60;60.40;;;30.34;43.92;95062.34;5033841;28;20196;-40
2023/06/21 10:15:23;;;;;;;0.30;0.30;;;29.60;60.30;;;30.36;43.58;95062.84;5034432;28;20214;-42
2023/06/21 10:17:55;;;;;;;0.20;0.20;;;29.70;60.40;;;30.35;43.63;95059.31;5034908;28;20195;-39
2023/06/21 10:20:33;;;;;;;0.30;0.30;;;29.70;60.30;;;30.41;43.77;95065.41;5049036;28;20595;-43
2023/06/21 10:23:04;;;;;;;0.22;0.22;;;29.70;60.30;;;30.44;43.28;95067.47;5050043;28;20234;-39
2023/06/21 10:25:32;;;;;;;0.20;0.20;;;29.80;60.40;;;30.47;43.61;95063.34;5033529;28;20189;-39
2023/06/21 10:28:01;;;;;;;0.20;0.20;;;29.80;60.30;;;30.49;43.53;95078.19;5050935;28;20197;-46
2023/06/21 10:30:33;;;;;;;0.20;0.20;;;29.80;60.20;;;30.50;43.07;95068.16;5034859;28;20268;-49